createdAt,value
2024-02-08T00:02:47.183Z,673.65
2024-02-08T00:07:47.155Z,670.97
2024-02-08T00:12:47.123Z,673.65
2024-02-08T00:17:47.018Z,665.67
2024-02-08T00:22:47.012Z,666.33
2024-02-08T00:27:46.885Z,666.99
2024-02-08T00:32:46.883Z,665.02
2024-02-08T00:37:46.922Z,665.67
2024-02-08T00:42:46.649Z,664.36
2024-02-08T00:47:46.753Z,662.40
2024-02-08T00:52:46.587Z,661.75
2024-02-08T00:57:46.497Z,663.71
2024-02-08T01:02:46.412Z,663.05
2024-02-08T01:07:46.362Z,661.10
2024-02-08T01:12:46.310Z,659.81
2024-02-08T01:17:46.248Z,663.71
2024-02-08T01:22:46.206Z,657.88
2024-02-08T01:27:46.126Z,657.88
2024-02-08T01:32:46.064Z,657.88
2024-02-08T01:37:45.977Z,659.16
2024-02-08T01:42:45.914Z,659.16
2024-02-08T01:47:45.879Z,655.96
2024-02-08T01:52:45.837Z,656.60
2024-02-08T01:57:45.707Z,654.68
2024-02-08T02:02:45.646Z,655.96
2024-02-08T02:07:45.584Z,656.60
2024-02-08T02:12:45.544Z,659.16
2024-02-08T02:17:45.454Z,652.78
2024-02-08T02:22:45.427Z,652.78
2024-02-08T02:27:45.325Z,653.42
2024-02-08T02:32:45.312Z,653.42
2024-02-08T02:37:45.253Z,652.78
2024-02-08T02:42:45.153Z,654.05
2024-02-08T02:47:45.128Z,649.64
2024-02-08T02:52:45.031Z,651.52
2024-02-08T02:57:44.931Z,650.27
2024-02-08T03:02:44.889Z,648.39
2024-02-08T03:07:44.841Z,651.52
2024-02-08T03:12:44.745Z,655.32
2024-02-08T03:17:44.714Z,655.32
2024-02-08T03:22:44.626Z,649.01
2024-02-08T03:27:44.559Z,644.67
2024-02-08T03:32:44.502Z,649.64
2024-02-08T03:37:44.414Z,649.01
2024-02-08T03:42:44.377Z,651.52
2024-02-08T03:47:44.400Z,650.27
2024-02-08T03:52:44.248Z,647.15
2024-02-08T03:57:44.155Z,650.27
2024-02-08T04:02:44.125Z,649.01
2024-02-08T04:07:44.062Z,644.05
2024-02-08T04:12:43.996Z,644.67
2024-02-08T04:17:43.943Z,641.60
2024-02-08T04:22:43.877Z,647.77
2024-02-08T04:27:43.768Z,640.99
2024-02-08T04:32:44.681Z,646.53
2024-02-08T04:37:43.681Z,641.60
2024-02-08T04:42:43.583Z,644.05
2024-02-08T04:47:43.520Z,639.17
2024-02-08T04:52:43.480Z,640.99
2024-02-08T04:57:43.380Z,640.39
2024-02-08T05:02:43.308Z,637.36
2024-02-08T05:07:43.285Z,640.99
2024-02-08T05:12:43.225Z,639.78
2024-02-08T05:17:43.206Z,641.60
2024-02-08T05:22:43.102Z,642.21
2024-02-08T05:27:43.057Z,639.17
2024-02-08T05:32:42.918Z,642.83
2024-02-08T05:37:42.852Z,644.67
2024-02-08T05:42:42.788Z,639.17
2024-02-08T05:47:42.737Z,639.17
2024-02-08T05:52:42.648Z,641.60
2024-02-08T05:57:42.678Z,639.17
2024-02-08T06:02:42.529Z,635.56
2024-02-08T06:07:42.535Z,641.60
2024-02-08T06:12:42.423Z,639.78
2024-02-08T06:17:42.406Z,635.56
2024-02-08T06:22:42.259Z,634.36
2024-02-08T06:27:42.457Z,637.96
2024-02-08T06:32:42.196Z,628.45
2024-02-08T06:37:42.129Z,634.36
2024-02-08T06:42:42.010Z,636.76
2024-02-08T06:47:42.070Z,634.36
2024-02-08T06:52:41.872Z,634.36
2024-02-08T06:57:41.838Z,631.39
2024-02-08T07:02:41.745Z,637.96
2024-02-08T07:07:41.797Z,629.03
2024-02-08T07:12:41.632Z,633.17
2024-02-08T07:17:41.581Z,633.76
2024-02-08T07:22:41.493Z,626.11
2024-02-08T07:27:41.421Z,626.11
2024-02-08T07:32:41.374Z,619.78
2024-02-08T07:37:41.327Z,630.80
2024-02-08T07:42:41.236Z,629.62
2024-02-08T07:47:41.264Z,622.65
2024-02-08T07:52:41.098Z,625.53
2024-02-08T07:57:41.019Z,626.11
2024-02-08T08:02:40.985Z,622.65
2024-02-08T08:07:40.932Z,623.22
2024-02-08T08:12:40.834Z,622.07
2024-02-08T08:17:40.808Z,619.22
2024-02-08T08:22:41.091Z,616.39
2024-02-08T08:27:40.643Z,615.82
2024-02-08T08:32:40.633Z,614.14
2024-02-08T08:37:40.552Z,613.02
2024-02-08T08:42:40.441Z,614.70
2024-02-08T08:47:40.408Z,612.47
2024-02-08T08:52:40.318Z,612.47
2024-02-08T08:57:40.237Z,614.14
2024-02-08T09:02:40.178Z,609.15
2024-02-08T09:07:40.167Z,603.69
2024-02-08T09:12:40.047Z,600.47
2024-02-08T09:17:40.049Z,597.28
2024-02-08T09:22:39.927Z,596.75
2024-02-08T09:27:39.853Z,593.60
2024-02-08T09:32:39.896Z,591.51
2024-02-08T09:37:39.776Z,589.45
2024-02-08T09:42:39.639Z,589.45
2024-02-08T09:47:39.610Z,586.37
2024-02-08T09:52:39.537Z,582.82
2024-02-08T09:57:39.451Z,581.82
2024-02-08T10:02:39.377Z,577.83
2024-02-08T10:07:39.404Z,577.33
2024-02-08T10:12:39.261Z,573.89
2024-02-08T10:17:39.257Z,574.87
2024-02-08T10:22:39.160Z,571.46
2024-02-08T10:27:39.073Z,569.05
2024-02-08T10:32:39.032Z,568.09
2024-02-08T10:37:38.975Z,567.14
2024-02-08T10:42:38.845Z,569.53
2024-02-08T10:47:42.047Z,562.41
2024-02-08T10:52:38.934Z,562.41
2024-02-08T10:57:38.768Z,565.23
2024-02-08T11:02:38.607Z,564.76
2024-02-08T11:07:38.571Z,562.41
2024-02-08T11:12:38.455Z,564.29
2024-02-08T11:17:38.467Z,559.14
2024-02-08T11:22:38.346Z,562.41
2024-02-08T11:27:38.284Z,556.83
2024-02-08T11:32:38.221Z,560.07
2024-02-08T11:37:38.219Z,559.14
2024-02-08T11:42:38.880Z,556.83
2024-02-08T11:47:38.062Z,555.46
2024-02-08T11:52:38.036Z,553.63
2024-02-08T11:57:38.350Z,552.27
2024-02-08T12:02:37.786Z,552.72
2024-02-08T12:07:37.801Z,548.23
2024-02-08T12:12:37.791Z,546.90
2024-02-08T12:17:37.615Z,545.13
2024-02-08T12:22:37.591Z,546.46
2024-02-08T12:27:37.488Z,544.69
2024-02-08T12:32:37.504Z,543.37
2024-02-08T12:37:37.391Z,539.46
2024-02-08T12:42:37.257Z,543.37
2024-02-08T12:47:37.224Z,538.60
2024-02-08T12:52:37.208Z,537.74
2024-02-08T12:57:37.060Z,533.06
2024-02-08T13:02:37.006Z,530.55
2024-02-08T13:07:38.808Z,528.05
2024-02-08T13:12:36.887Z,526.41
2024-02-08T13:17:36.841Z,527.23
2024-02-08T13:22:36.852Z,524.77
2024-02-08T13:27:36.700Z,524.77
2024-02-08T13:32:36.680Z,517.12
2024-02-08T13:37:36.757Z,516.72
2024-02-08T13:42:47.774Z,511.63
2024-02-08T13:47:37.639Z,507.39
2024-02-08T13:52:36.410Z,508.92
2024-02-08T13:57:38.179Z,506.63
2024-02-08T14:02:36.291Z,504.36
2024-02-08T14:07:36.202Z,502.48
2024-02-08T14:12:36.124Z,499.50
2024-02-08T14:17:36.152Z,496.92
2024-02-08T14:22:36.018Z,492.93
2024-02-08T14:27:35.919Z,494.37
2024-02-08T14:32:36.819Z,490.77
2024-02-08T14:37:35.842Z,490.06
2024-02-08T14:42:35.669Z,485.13
2024-02-08T14:47:35.693Z,486.17
2024-02-08T14:52:35.850Z,480.63
2024-02-08T14:57:35.516Z,483.39
2024-02-08T15:02:35.465Z,479.61
2024-02-08T15:07:35.525Z,480.97
2024-02-08T15:12:35.275Z,481.66
2024-02-08T15:17:35.271Z,476.89
2024-02-08T15:22:35.214Z,476.55
2024-02-08T15:27:35.125Z,475.55
2024-02-08T15:32:35.093Z,475.21
2024-02-08T15:37:35.396Z,476.22
2024-02-08T15:42:34.939Z,473.21
2024-02-08T15:47:34.893Z,473.21
2024-02-08T15:52:35.046Z,470.90
2024-02-08T15:57:34.841Z,473.54
2024-02-08T16:02:35.504Z,471.56
2024-02-08T16:07:34.648Z,467.96
2024-02-08T16:12:34.526Z,464.73
2024-02-08T16:17:34.567Z,466.66
2024-02-08T16:22:34.443Z,465.05
2024-02-08T16:27:34.332Z,465.37
2024-02-08T16:32:36.187Z,464.09
2024-02-08T16:37:34.292Z,464.41
2024-02-08T16:42:34.103Z,462.82
2024-02-08T16:47:34.110Z,460.92
2024-02-08T16:52:34.045Z,460.92
2024-02-08T16:57:33.919Z,459.66
2024-02-08T17:02:33.907Z,459.35
2024-02-08T17:07:33.878Z,458.10
2024-02-08T17:12:33.761Z,457.79
2024-02-08T17:17:33.791Z,452.87
2024-02-08T17:22:33.870Z,453.17
2024-02-08T17:27:33.529Z,453.17
2024-02-08T17:32:33.481Z,455.32
2024-02-08T17:37:33.418Z,451.66
2024-02-08T17:42:33.334Z,453.48
2024-02-08T17:47:33.262Z,450.45
2024-02-08T17:52:33.302Z,452.57
2024-02-08T17:57:33.109Z,448.06
2024-02-08T18:02:33.091Z,449.55
2024-02-08T18:07:33.103Z,448.06
2024-02-08T18:12:32.946Z,447.17
2024-02-08T18:17:32.886Z,450.15
2024-02-08T18:22:33.162Z,445.69
2024-02-08T18:27:32.794Z,443.93
2024-02-08T18:32:32.794Z,445.10
2024-02-08T18:37:32.760Z,444.51
2024-02-08T18:42:32.554Z,441.02
2024-02-08T18:47:32.467Z,440.73
2024-02-08T18:52:32.588Z,441.60
2024-02-08T18:57:32.352Z,438.44
2024-02-08T19:02:32.361Z,442.18
2024-02-08T19:07:32.272Z,438.73
2024-02-08T19:12:32.132Z,439.30
2024-02-08T19:17:32.171Z,441.60
2024-02-08T19:22:32.047Z,437.59
2024-02-08T19:27:31.927Z,435.89
2024-02-08T19:32:31.970Z,432.26
2024-02-08T19:37:31.952Z,434.21
2024-02-08T19:42:31.778Z,434.77
2024-02-08T19:47:31.796Z,431.43
2024-02-08T19:52:31.618Z,432.26
2024-02-08T19:57:31.567Z,430.88
2024-02-08T20:02:32.261Z,431.71
2024-02-08T20:07:31.621Z,429.78
2024-02-08T20:12:31.307Z,429.23
2024-02-08T20:17:31.308Z,428.96
2024-02-08T20:22:31.205Z,427.87
2024-02-08T20:27:31.112Z,430.88
2024-02-08T20:32:31.118Z,426.52
2024-02-08T20:37:31.059Z,426.52
2024-02-08T20:42:30.939Z,430.33
2024-02-08T20:47:31.148Z,425.17
2024-02-08T20:52:30.841Z,424.37
2024-02-08T20:57:30.803Z,425.44
2024-02-08T21:02:30.661Z,423.30
2024-02-08T21:07:30.666Z,423.84
2024-02-08T21:12:30.554Z,422.51
2024-02-08T21:17:30.564Z,422.77
2024-02-08T21:22:30.826Z,422.24
2024-02-08T21:27:30.395Z,422.77
2024-02-08T21:32:30.279Z,421.45
2024-02-08T21:37:30.245Z,422.77
2024-02-08T21:42:30.182Z,420.40
2024-02-08T21:47:30.125Z,421.19
2024-02-08T21:52:30.027Z,423.30
2024-02-08T21:57:30.085Z,421.72
2024-02-08T22:02:31.190Z,423.30
2024-02-08T22:07:30.141Z,423.04
2024-02-08T22:12:29.824Z,423.04
2024-02-08T22:17:29.982Z,420.66
2024-02-08T22:22:29.909Z,426.52
2024-02-08T22:27:29.965Z,424.10
2024-02-08T22:32:29.679Z,423.84
2024-02-08T22:37:29.735Z,425.71
2024-02-08T22:42:29.556Z,425.44
2024-02-08T22:47:29.314Z,426.25
2024-02-08T22:52:29.244Z,424.10
2024-02-08T22:57:29.237Z,424.37
2024-02-08T23:02:29.091Z,421.72
2024-02-08T23:07:29.081Z,424.90
2024-02-08T23:12:28.957Z,425.98
2024-02-08T23:17:28.890Z,421.98
2024-02-08T23:22:28.831Z,427.06
2024-02-08T23:27:28.756Z,423.57
2024-02-08T23:32:30.664Z,427.06
2024-02-08T23:37:28.650Z,425.17
2024-02-08T23:42:28.582Z,427.06
2024-02-08T23:47:28.485Z,426.52
2024-02-08T23:52:28.429Z,426.52
2024-02-08T23:57:28.410Z,425.17
